createdAt,value
2023-03-06T00:01:11.337Z,2.30
2023-03-06T00:03:39.197Z,2.30
2023-03-06T00:06:07.607Z,2.30
2023-03-06T00:08:35.451Z,2.20
2023-03-06T00:11:03.302Z,2.30
2023-03-06T00:13:32.004Z,2.30
2023-03-06T00:16:01.774Z,2.20
2023-03-06T00:18:29.792Z,2.20
2023-03-06T00:20:57.566Z,2.20
2023-03-06T00:23:25.721Z,2.30
2023-03-06T00:25:53.529Z,2.30
2023-03-06T00:28:21.338Z,2.30
2023-03-06T00:30:49.140Z,2.20
2023-03-06T00:33:18.290Z,2.20
2023-03-06T00:35:46.108Z,2.20
2023-03-06T00:38:14.354Z,2.30
2023-03-06T00:40:42.213Z,2.30
2023-03-06T00:43:10.027Z,2.30
2023-03-06T00:45:38.018Z,2.30
2023-03-06T00:48:06.504Z,2.30
2023-03-06T00:50:36.153Z,2.20
2023-03-06T00:53:04.033Z,2.20
2023-03-06T00:55:33.306Z,2.10
2023-03-06T00:58:01.139Z,2.10
2023-03-06T01:00:29.180Z,2.20
2023-03-06T01:02:56.981Z,2.20
2023-03-06T01:05:24.766Z,2.10
2023-03-06T01:07:54.073Z,2.00
2023-03-06T01:10:22.133Z,2.10
2023-03-06T01:12:49.958Z,2.10
2023-03-06T01:15:17.806Z,2.10
2023-03-06T01:17:45.623Z,2.20
2023-03-06T01:20:17.096Z,2.10
2023-03-06T01:22:45.278Z,2.10
2023-03-06T01:25:14.553Z,2.10
2023-03-06T01:27:42.393Z,2.10
2023-03-06T01:30:11.599Z,2.10
2023-03-06T01:32:39.718Z,2.20
2023-03-06T01:35:08.358Z,2.20
2023-03-06T01:37:36.999Z,2.20
2023-03-06T01:40:05.599Z,2.20
2023-03-06T01:42:34.822Z,2.20
2023-03-06T01:45:05.871Z,2.30
2023-03-06T01:47:33.658Z,2.20
2023-03-06T01:50:03.997Z,2.10
2023-03-06T01:52:36.727Z,2.10
2023-03-06T01:55:09.331Z,2.00
2023-03-06T01:57:41.971Z,2.10
2023-03-06T02:00:12.324Z,2.10
2023-03-06T02:02:41.214Z,2.10
2023-03-06T02:05:10.021Z,2.00
2023-03-06T02:07:39.161Z,2.00
2023-03-06T02:10:08.019Z,2.00
2023-03-06T02:12:37.434Z,2.00
2023-03-06T02:15:07.658Z,2.00
2023-03-06T02:17:36.546Z,2.00
2023-03-06T02:20:11.710Z,2.00
2023-03-06T02:22:48.696Z,2.10
2023-03-06T02:25:32.562Z,2.10
2023-03-06T02:28:00.447Z,2.00
2023-03-06T02:30:29.205Z,1.90
2023-03-06T02:32:57.797Z,2.00
2023-03-06T02:35:27.160Z,2.00
2023-03-06T02:37:57.013Z,2.00
2023-03-06T02:40:26.615Z,2.00
2023-03-06T02:42:56.335Z,1.90
2023-03-06T02:45:31.341Z,1.80
2023-03-06T02:47:59.099Z,1.80
2023-03-06T02:50:26.964Z,1.80
2023-03-06T02:52:54.779Z,1.80
2023-03-06T02:55:23.012Z,1.70
2023-03-06T02:57:52.167Z,1.80
2023-03-06T03:00:20.818Z,1.70
2023-03-06T03:02:48.604Z,1.70
2023-03-06T03:05:16.448Z,1.70
2023-03-06T03:07:44.245Z,1.70
2023-03-06T03:10:13.559Z,1.80
2023-03-06T03:12:42.252Z,1.70
2023-03-06T03:15:12.690Z,1.70
2023-03-06T03:17:41.717Z,1.70
2023-03-06T03:20:13.315Z,1.60
2023-03-06T03:22:41.216Z,1.70
2023-03-06T03:25:10.022Z,1.60
2023-03-06T03:27:37.796Z,1.60
2023-03-06T03:30:06.402Z,1.60
2023-03-06T03:32:35.543Z,1.60
2023-03-06T03:35:03.700Z,1.60
2023-03-06T03:37:31.506Z,1.50
2023-03-06T03:40:00.295Z,1.50
2023-03-06T03:42:28.361Z,1.60
2023-03-06T03:44:56.229Z,1.70
2023-03-06T03:47:24.004Z,1.60
2023-03-06T03:49:53.226Z,1.50
2023-03-06T03:52:21.017Z,1.50
2023-03-06T03:54:48.823Z,1.50
2023-03-06T03:57:16.684Z,1.50
2023-03-06T03:59:44.438Z,1.60
2023-03-06T04:02:12.401Z,1.60
2023-03-06T04:04:40.670Z,1.70
2023-03-06T04:07:10.817Z,1.80
2023-03-06T04:09:38.602Z,1.80
2023-03-06T04:12:07.022Z,1.90
2023-03-06T04:14:34.975Z,1.80
2023-03-06T04:17:02.965Z,1.70
2023-03-06T04:19:30.816Z,1.70
2023-03-06T04:21:58.657Z,1.60
2023-03-06T04:24:27.848Z,1.70
2023-03-06T04:26:55.642Z,1.60
2023-03-06T04:29:23.706Z,1.70
2023-03-06T04:31:51.481Z,1.80
2023-03-06T04:34:19.413Z,1.70
2023-03-06T04:36:47.206Z,1.60
2023-03-06T04:39:15.559Z,1.60
2023-03-06T04:41:44.768Z,1.50
2023-03-06T04:44:12.796Z,1.50
2023-03-06T04:46:40.684Z,1.50
2023-03-06T04:49:08.660Z,1.50
2023-03-06T04:51:36.993Z,1.50
2023-03-06T04:54:05.004Z,1.50
2023-03-06T04:56:34.474Z,1.50
2023-03-06T04:59:04.182Z,1.60
2023-03-06T05:01:31.996Z,1.50
2023-03-06T05:03:59.830Z,1.60
2023-03-06T05:06:27.822Z,1.70
2023-03-06T05:08:55.884Z,1.60
2023-03-06T05:11:23.750Z,1.70
2023-03-06T05:13:51.790Z,1.60
2023-03-06T05:16:21.164Z,1.70
2023-03-06T05:18:50.665Z,1.50
2023-03-06T05:21:18.687Z,1.60
2023-03-06T05:23:47.451Z,1.60
2023-03-06T05:26:16.669Z,1.50
2023-03-06T05:28:45.228Z,1.50
2023-03-06T05:31:13.113Z,1.40
2023-03-06T05:33:42.292Z,1.40
2023-03-06T05:36:10.503Z,1.40
2023-03-06T05:38:38.338Z,1.50
2023-03-06T05:41:06.356Z,1.50
2023-03-06T05:43:34.151Z,1.60
2023-03-06T05:46:03.423Z,1.60
2023-03-06T05:48:31.548Z,1.50
2023-03-06T05:51:02.901Z,1.50
2023-03-06T05:53:31.006Z,1.60
2023-03-06T05:56:00.504Z,1.60
2023-03-06T05:58:28.387Z,1.50
2023-03-06T06:00:56.197Z,1.60
2023-03-06T06:03:24.706Z,1.60
2023-03-06T06:05:53.317Z,1.70
2023-03-06T06:08:22.714Z,1.60
2023-03-06T06:10:53.181Z,1.50
2023-03-06T06:13:21.217Z,1.50
2023-03-06T06:15:49.014Z,1.50
2023-03-06T06:18:16.874Z,1.60
2023-03-06T06:20:44.641Z,1.60
2023-03-06T06:23:12.953Z,1.70
2023-03-06T06:25:42.289Z,1.80
2023-03-06T06:28:10.116Z,1.80
2023-03-06T06:30:38.484Z,1.80
2023-03-06T06:33:06.266Z,1.80
2023-03-06T06:35:37.141Z,1.90
2023-03-06T06:38:05.011Z,1.90
2023-03-06T06:40:32.859Z,2.00
2023-03-06T06:43:01.958Z,2.10
2023-03-06T06:45:29.726Z,2.10
2023-03-06T06:47:57.611Z,2.10
2023-03-06T06:50:25.635Z,2.20
2023-03-06T06:52:53.412Z,2.30
2023-03-06T06:55:21.163Z,2.30
2023-03-06T06:57:48.948Z,2.30
2023-03-06T07:00:19.480Z,2.40
2023-03-06T07:02:49.340Z,2.40
2023-03-06T07:05:17.257Z,2.50
2023-03-06T07:07:45.775Z,2.60
2023-03-06T07:10:16.034Z,2.70
2023-03-06T07:12:44.028Z,2.70
2023-03-06T07:15:14.312Z,2.80
2023-03-06T07:17:43.888Z,2.90
2023-03-06T07:20:12.820Z,2.90
2023-03-06T07:22:50.286Z,3.00
2023-03-06T07:25:19.574Z,3.10
2023-03-06T07:27:53.457Z,3.10
2023-03-06T07:30:22.010Z,3.10
2023-03-06T07:32:53.920Z,3.20
2023-03-06T07:35:22.119Z,3.20
2023-03-06T07:37:51.032Z,3.20
2023-03-06T07:40:19.732Z,3.20
2023-03-06T07:42:48.166Z,3.10
2023-03-06T07:45:16.166Z,3.20
2023-03-06T07:47:44.024Z,3.20
2023-03-06T07:50:13.751Z,3.20
2023-03-06T07:52:41.523Z,3.30
2023-03-06T07:55:10.598Z,3.40
2023-03-06T07:57:38.639Z,3.40
2023-03-06T08:00:10.530Z,3.40
2023-03-06T08:02:38.333Z,3.50
2023-03-06T08:05:07.513Z,3.50
2023-03-06T08:07:36.863Z,3.50
2023-03-06T08:10:05.115Z,3.60
2023-03-06T08:12:33.343Z,3.50
2023-03-06T08:15:01.115Z,3.40
2023-03-06T08:17:28.868Z,3.40
2023-03-06T08:19:56.766Z,3.50
2023-03-06T08:22:24.622Z,3.50
2023-03-06T08:24:56.742Z,3.50
2023-03-06T08:27:24.964Z,3.50
2023-03-06T08:29:52.780Z,3.50
2023-03-06T08:32:20.782Z,3.60
2023-03-06T08:34:48.593Z,3.50
2023-03-06T08:37:16.386Z,3.70
2023-03-06T08:39:44.183Z,3.60
2023-03-06T08:42:13.742Z,3.50
2023-03-06T08:44:41.562Z,3.80
2023-03-06T08:47:09.374Z,3.90
2023-03-06T08:49:39.440Z,4.00
2023-03-06T08:52:07.735Z,3.80
2023-03-06T08:54:36.276Z,3.90
2023-03-06T08:57:04.154Z,4.10
2023-03-06T08:59:33.294Z,3.90
2023-03-06T09:02:01.609Z,4.10
2023-03-06T09:04:30.956Z,4.20
2023-03-06T09:06:58.788Z,4.20
2023-03-06T09:09:26.821Z,4.20
2023-03-06T09:11:54.859Z,4.30
2023-03-06T09:14:22.813Z,4.30
2023-03-06T09:16:52.029Z,4.20
2023-03-06T09:19:19.831Z,4.40
2023-03-06T09:21:48.341Z,4.50
2023-03-06T09:24:16.312Z,4.60
2023-03-06T09:26:46.441Z,4.70
2023-03-06T09:29:16.171Z,4.80
2023-03-06T09:31:44.098Z,4.70
2023-03-06T09:34:13.313Z,4.70
2023-03-06T09:36:55.623Z,4.60
2023-03-06T09:39:25.692Z,4.70
2023-03-06T09:41:54.064Z,4.70
2023-03-06T09:44:25.915Z,4.70
2023-03-06T09:47:11.253Z,4.80
2023-03-06T09:49:51.705Z,4.80
2023-03-06T09:52:31.990Z,4.80
2023-03-06T09:55:10.180Z,5.00
2023-03-06T09:57:42.163Z,5.20
2023-03-06T10:00:16.098Z,5.10
2023-03-06T10:02:47.093Z,5.30
2023-03-06T10:05:22.692Z,5.40
2023-03-06T10:07:54.998Z,5.60
2023-03-06T10:10:25.426Z,5.60
2023-03-06T10:13:03.310Z,5.60
2023-03-06T10:15:35.973Z,5.60
2023-03-06T10:18:04.825Z,5.50
2023-03-06T10:20:41.917Z,5.40
2023-03-06T10:23:28.997Z,5.10
2023-03-06T10:26:02.072Z,4.90
2023-03-06T10:28:37.112Z,4.80
2023-03-06T10:31:14.027Z,4.70
2023-03-06T10:33:53.894Z,4.70
2023-03-06T10:36:26.927Z,4.80
2023-03-06T10:38:55.950Z,4.90
2023-03-06T10:41:29.366Z,4.80
2023-03-06T10:44:23.605Z,4.60
2023-03-06T10:46:53.577Z,4.70
2023-03-06T10:49:33.792Z,4.80
2023-03-06T10:52:06.675Z,4.80
2023-03-06T10:54:36.121Z,4.90
2023-03-06T10:57:26.760Z,4.70
2023-03-06T10:59:56.133Z,4.90
2023-03-06T11:02:28.160Z,5.00
2023-03-06T11:04:57.276Z,5.00
2023-03-06T11:07:28.390Z,5.20
2023-03-06T11:10:16.612Z,5.20
2023-03-06T11:12:44.996Z,5.10
2023-03-06T11:15:22.367Z,5.30
2023-03-06T11:17:53.674Z,5.20
2023-03-06T11:20:23.727Z,5.20
2023-03-06T11:22:56.958Z,4.80
2023-03-06T11:25:31.059Z,4.70
2023-03-06T11:28:02.700Z,4.80
2023-03-06T11:30:37.209Z,5.00
2023-03-06T11:33:11.687Z,5.10
2023-03-06T11:35:50.613Z,5.20
2023-03-06T11:38:24.345Z,5.30
2023-03-06T11:40:54.959Z,5.30
2023-03-06T11:43:26.310Z,4.90
2023-03-06T11:46:00.277Z,4.90
2023-03-06T11:48:35.205Z,4.50
2023-03-06T11:51:07.906Z,4.50
2023-03-06T11:53:39.813Z,4.20
2023-03-06T11:56:22.685Z,4.00
2023-03-06T11:59:27.738Z,4.20
2023-03-06T12:02:02.545Z,4.30
2023-03-06T12:04:50.849Z,4.30
2023-03-06T12:07:26.929Z,4.20
2023-03-06T12:10:01.319Z,4.00
2023-03-06T12:12:42.169Z,4.10
2023-03-06T12:15:24.391Z,4.20
2023-03-06T12:18:27.526Z,4.20
2023-03-06T12:21:04.064Z,4.40
2023-03-06T12:23:49.756Z,4.70
2023-03-06T12:26:34.676Z,4.90
2023-03-06T12:29:19.809Z,5.10
2023-03-06T12:31:58.558Z,5.20
2023-03-06T12:34:38.936Z,5.30
2023-03-06T12:37:18.966Z,5.20
2023-03-06T12:39:58.733Z,4.70
2023-03-06T12:42:45.644Z,4.70
2023-03-06T12:45:33.341Z,4.70
2023-03-06T12:48:02.074Z,4.80
2023-03-06T12:50:31.942Z,4.80
2023-03-06T12:53:02.918Z,4.80
2023-03-06T12:55:37.679Z,4.90
2023-03-06T12:58:35.268Z,4.90
2023-03-06T13:01:08.466Z,4.50
2023-03-06T13:03:49.832Z,4.40
2023-03-06T13:06:49.803Z,4.50
2023-03-06T13:09:26.897Z,4.30
2023-03-06T13:12:16.266Z,4.40
2023-03-06T13:14:58.633Z,4.50
2023-03-06T13:17:37.188Z,4.50
2023-03-06T13:20:37.337Z,4.50
2023-03-06T13:23:48.206Z,4.60
2023-03-06T13:26:52.428Z,4.60
2023-03-06T13:30:02.238Z,4.70
2023-03-06T13:32:34.978Z,4.70
2023-03-06T13:35:03.355Z,4.70
2023-03-06T13:37:51.084Z,4.70
2023-03-06T13:40:34.429Z,4.70
2023-03-06T13:43:21.741Z,4.70
2023-03-06T13:45:50.993Z,4.40
2023-03-06T13:48:44.709Z,4.50
2023-03-06T13:51:25.127Z,4.60
2023-03-06T13:54:21.483Z,4.70
2023-03-06T13:57:14.465Z,4.70
2023-03-06T14:00:09.521Z,4.50
2023-03-06T14:03:32.636Z,4.60
2023-03-06T14:06:01.936Z,4.40
2023-03-06T14:08:32.195Z,4.50
2023-03-06T14:11:03.240Z,4.50
2023-03-06T14:13:45.461Z,4.40
2023-03-06T14:16:21.717Z,4.40
2023-03-06T14:18:51.432Z,4.50
2023-03-06T14:21:30.884Z,4.40
2023-03-06T14:24:04.324Z,4.60
2023-03-06T14:26:34.705Z,4.70
2023-03-06T14:29:03.996Z,4.80
2023-03-06T14:31:33.556Z,5.00
2023-03-06T14:34:04.774Z,5.10
2023-03-06T14:36:37.277Z,5.20
2023-03-06T14:39:11.369Z,5.20
2023-03-06T14:41:39.787Z,5.30
2023-03-06T14:44:17.929Z,5.10
2023-03-06T14:46:47.038Z,5.20
2023-03-06T14:49:19.154Z,5.20
2023-03-06T14:51:51.602Z,5.20
2023-03-06T14:54:22.059Z,5.10
2023-03-06T14:56:52.961Z,5.20
2023-03-06T14:59:25.697Z,5.00
2023-03-06T15:01:59.564Z,5.00
2023-03-06T15:04:32.136Z,4.80
2023-03-06T15:07:01.573Z,4.90
2023-03-06T15:09:32.505Z,4.90
2023-03-06T15:12:02.073Z,4.90
2023-03-06T15:14:33.341Z,4.80
2023-03-06T15:17:23.134Z,4.90
2023-03-06T15:19:54.159Z,4.80
2023-03-06T15:22:37.630Z,4.80
2023-03-06T15:25:22.147Z,4.80
2023-03-06T15:27:51.575Z,4.80
2023-03-06T15:30:25.497Z,4.80
2023-03-06T15:33:08.780Z,4.80
2023-03-06T15:35:38.303Z,4.90
2023-03-06T15:38:24.534Z,4.80
2023-03-06T15:40:58.246Z,4.80
2023-03-06T15:43:26.508Z,4.80
2023-03-06T15:45:59.748Z,4.80
2023-03-06T15:48:28.209Z,4.80
2023-03-06T15:50:56.010Z,4.80
2023-03-06T15:53:25.269Z,4.80
2023-03-06T15:55:53.409Z,4.70
2023-03-06T15:58:24.764Z,4.80
2023-03-06T16:00:52.689Z,4.70
2023-03-06T16:03:20.475Z,4.60
2023-03-06T16:05:48.328Z,4.60
2023-03-06T16:08:16.154Z,4.40
2023-03-06T16:10:46.712Z,4.50
2023-03-06T16:13:19.441Z,4.50
2023-03-06T16:15:49.746Z,4.50
2023-03-06T16:18:18.301Z,4.50
2023-03-06T16:20:46.528Z,4.60
2023-03-06T16:23:15.329Z,4.50
2023-03-06T16:25:48.699Z,4.60
2023-03-06T16:28:17.588Z,4.50
2023-03-06T16:30:46.543Z,4.50
2023-03-06T16:33:15.262Z,4.40
2023-03-06T16:35:46.334Z,4.40
2023-03-06T16:38:15.493Z,4.40
2023-03-06T16:40:44.875Z,4.30
2023-03-06T16:43:13.370Z,4.40
2023-03-06T16:45:42.236Z,4.40
2023-03-06T16:48:14.836Z,4.30
2023-03-06T16:50:43.019Z,4.20
2023-03-06T16:53:10.818Z,4.20
2023-03-06T16:55:38.736Z,4.30
2023-03-06T16:58:08.621Z,4.20
2023-03-06T17:00:36.434Z,4.20
2023-03-06T17:03:04.372Z,4.20
2023-03-06T17:05:34.333Z,4.20
2023-03-06T17:08:02.200Z,4.10
2023-03-06T17:10:29.956Z,4.10
2023-03-06T17:12:58.131Z,4.00
2023-03-06T17:15:27.619Z,4.00
2023-03-06T17:17:55.641Z,4.00
2023-03-06T17:20:23.838Z,3.90
2023-03-06T17:22:51.678Z,3.90
2023-03-06T17:25:19.629Z,3.90
2023-03-06T17:27:47.589Z,3.80
2023-03-06T17:30:16.217Z,3.80
2023-03-06T17:32:45.429Z,3.80
2023-03-06T17:35:13.244Z,3.70
2023-03-06T17:37:41.237Z,3.70
2023-03-06T17:40:10.856Z,3.70
2023-03-06T17:42:39.611Z,3.70
2023-03-06T17:45:09.217Z,3.70
2023-03-06T17:47:37.111Z,3.70
2023-03-06T17:50:06.936Z,3.70
2023-03-06T17:52:34.837Z,3.70
2023-03-06T17:55:02.673Z,3.70
2023-03-06T17:57:30.454Z,3.70
2023-03-06T17:59:58.212Z,3.70
2023-03-06T18:02:26.217Z,3.70
2023-03-06T18:04:56.763Z,3.70
2023-03-06T18:07:26.509Z,3.70
2023-03-06T18:09:54.341Z,3.70
2023-03-06T18:12:22.229Z,3.70
2023-03-06T18:14:50.614Z,3.70
2023-03-06T18:17:18.721Z,3.80
2023-03-06T18:19:46.600Z,3.80
2023-03-06T18:22:14.673Z,3.80
2023-03-06T18:24:45.704Z,3.80
2023-03-06T18:27:13.766Z,3.70
2023-03-06T18:29:42.013Z,3.70
2023-03-06T18:32:10.695Z,3.70
2023-03-06T18:34:38.899Z,3.70
2023-03-06T18:37:06.973Z,3.70
2023-03-06T18:39:34.976Z,3.70
2023-03-06T18:42:04.209Z,3.70
2023-03-06T18:44:32.000Z,3.70
2023-03-06T18:47:00.038Z,3.70
2023-03-06T18:49:27.940Z,3.60
2023-03-06T18:51:55.853Z,3.70
2023-03-06T18:54:24.308Z,3.70
2023-03-06T18:56:52.180Z,3.60
2023-03-06T18:59:21.423Z,3.60
2023-03-06T19:01:49.295Z,3.60
2023-03-06T19:04:17.369Z,3.70
2023-03-06T19:06:45.260Z,3.60
2023-03-06T19:09:13.118Z,3.60
2023-03-06T19:11:42.642Z,3.60
2023-03-06T19:14:10.777Z,3.60
2023-03-06T19:16:41.735Z,3.60
2023-03-06T19:19:09.586Z,3.60
2023-03-06T19:21:37.385Z,3.60
2023-03-06T19:24:06.706Z,3.60
2023-03-06T19:26:34.654Z,3.60
2023-03-06T19:29:02.621Z,3.50
2023-03-06T19:31:30.401Z,3.60
2023-03-06T19:33:59.790Z,3.50
2023-03-06T19:36:33.635Z,3.50
2023-03-06T19:39:03.510Z,3.50
2023-03-06T19:41:32.160Z,3.50
2023-03-06T19:44:02.331Z,3.50
2023-03-06T19:46:31.889Z,3.50
2023-03-06T19:49:02.858Z,3.40
2023-03-06T19:51:31.081Z,3.40
2023-03-06T19:53:59.141Z,3.40
2023-03-06T19:56:28.855Z,3.40
2023-03-06T19:58:57.285Z,3.40
2023-03-06T20:01:26.707Z,3.30
2023-03-06T20:03:58.288Z,3.40
2023-03-06T20:06:29.091Z,3.40
2023-03-06T20:08:56.987Z,3.40
2023-03-06T20:11:26.665Z,3.40
2023-03-06T20:13:54.699Z,3.40
2023-03-06T20:16:22.509Z,3.40
2023-03-06T20:18:50.298Z,3.20
2023-03-06T20:21:18.193Z,3.20
2023-03-06T20:23:47.303Z,3.30
2023-03-06T20:26:15.549Z,3.30
2023-03-06T20:28:44.135Z,3.30
2023-03-06T20:31:16.286Z,3.40
2023-03-06T20:33:44.350Z,3.40
2023-03-06T20:36:13.381Z,3.40
2023-03-06T20:38:41.468Z,3.40
2023-03-06T20:41:16.327Z,3.40
2023-03-06T20:43:44.547Z,3.40
2023-03-06T20:46:13.614Z,3.40
2023-03-06T20:48:42.170Z,3.40
2023-03-06T20:51:15.737Z,3.40
2023-03-06T20:53:43.606Z,3.40
2023-03-06T20:56:12.968Z,3.40
2023-03-06T20:58:42.252Z,3.40
2023-03-06T21:01:10.047Z,3.40
2023-03-06T21:03:37.828Z,3.40
2023-03-06T21:06:05.942Z,3.40
2023-03-06T21:08:33.739Z,3.40
2023-03-06T21:11:01.486Z,3.40
2023-03-06T21:13:29.340Z,3.40
2023-03-06T21:15:58.554Z,3.40
2023-03-06T21:18:26.469Z,3.30
2023-03-06T21:20:54.250Z,3.30
2023-03-06T21:23:22.099Z,3.40
2023-03-06T21:25:51.113Z,3.30
2023-03-06T21:28:19.690Z,3.30
2023-03-06T21:30:47.629Z,3.30
2023-03-06T21:33:16.853Z,3.30
2023-03-06T21:35:46.122Z,3.30
2023-03-06T21:38:14.781Z,3.30
2023-03-06T21:40:43.131Z,3.30
2023-03-06T21:43:11.280Z,3.30
2023-03-06T21:45:39.443Z,3.30
2023-03-06T21:48:07.480Z,3.30
2023-03-06T21:50:36.658Z,3.30
2023-03-06T21:53:04.582Z,3.30
2023-03-06T21:55:32.481Z,3.30
2023-03-06T21:58:00.228Z,3.30
2023-03-06T22:00:28.026Z,3.20
2023-03-06T22:02:55.776Z,3.30
2023-03-06T22:05:25.517Z,3.30
2023-03-06T22:07:54.665Z,3.20
2023-03-06T22:10:22.450Z,3.20
2023-03-06T22:12:50.210Z,3.20
2023-03-06T22:15:18.160Z,3.20
2023-03-06T22:17:47.521Z,3.20
2023-03-06T22:20:15.359Z,3.20
2023-03-06T22:22:43.612Z,3.20
2023-03-06T22:25:12.934Z,3.10
2023-03-06T22:27:40.711Z,3.20
2023-03-06T22:30:09.786Z,3.20
2023-03-06T22:32:37.571Z,3.20
2023-03-06T22:35:06.215Z,3.20
2023-03-06T22:37:34.010Z,3.10
2023-03-06T22:40:01.769Z,3.00
2023-03-06T22:42:30.893Z,3.10
2023-03-06T22:44:58.695Z,3.00
2023-03-06T22:47:26.479Z,3.10
2023-03-06T22:49:54.261Z,3.10
2023-03-06T22:52:22.360Z,3.10
2023-03-06T22:54:50.115Z,3.10
2023-03-06T22:57:17.903Z,3.10
2023-03-06T22:59:47.413Z,3.00
2023-03-06T23:02:15.234Z,3.00
2023-03-06T23:04:43.054Z,3.10
2023-03-06T23:07:10.867Z,3.10
2023-03-06T23:09:38.620Z,3.10
2023-03-06T23:12:08.868Z,3.00
2023-03-06T23:14:36.762Z,3.00
2023-03-06T23:17:06.047Z,3.10
2023-03-06T23:19:33.812Z,3.00
2023-03-06T23:22:01.578Z,3.00
2023-03-06T23:24:29.510Z,3.00
2023-03-06T23:26:57.298Z,3.00
2023-03-06T23:29:25.180Z,3.00
2023-03-06T23:31:52.951Z,3.00
2023-03-06T23:34:22.070Z,3.00
2023-03-06T23:36:49.871Z,3.00
2023-03-06T23:39:17.794Z,3.00
2023-03-06T23:41:45.677Z,3.00
2023-03-06T23:44:13.593Z,3.00
2023-03-06T23:46:41.401Z,2.90
2023-03-06T23:49:09.167Z,3.00
2023-03-06T23:51:38.346Z,3.00
2023-03-06T23:54:06.844Z,3.00
2023-03-06T23:56:34.599Z,2.90
2023-03-06T23:59:02.561Z,3.00
